Time;durP1;ratioP1;P1;durP2;ratioP2;P2;SDS_P1;SDS_P2;PMS_P1;PMS_P2;Temp;Humidity;BMP_temperature;BMP_pressure;BME280_temperature;BME280_humidity;BME280_pressure;Samples;Min_cycle;Max_cycle;Signal;HPM_P1;HPM_P2
2022/08/22 00:01:23;;;;;;;19.95;4.80;;;19.90;99.90;;;;;;5031981;28;20056;-74
2022/08/22 00:03:48;;;;;;;;;;;19.80;99.90;;;;;;5042564;28;20091;-74
2022/08/22 00:06:24;;;;;;;14.55;5.15;;;19.80;99.90;;;;;;5050198;28;19913;-74
2022/08/22 00:09:17;;;;;;;23.15;5.55;;;19.80;99.90;;;;;;5051782;28;20065;-72
2022/08/22 00:11:56;;;;;;;16.50;5.30;;;19.70;99.90;;;;;;5047899;28;20083;-73
2022/08/22 00:14:38;;;;;;;20.20;4.97;;;19.70;99.90;;;;;;5030543;28;20508;-73
2022/08/22 00:17:22;;;;;;;19.58;5.35;;;19.70;99.90;;;;;;5030316;28;20030;-73
2022/08/22 00:20:01;;;;;;;26.38;5.90;;;19.70;99.90;;;;;;5032696;28;20112;-74
2022/08/22 00:22:37;;;;;;;20.27;6.25;;;19.60;99.90;;;;;;5030961;28;20439;-74
2022/08/22 00:25:18;;;;;;;14.60;4.85;;;19.60;99.90;;;;;;5031960;28;20047;-75
2022/08/22 00:27:56;;;;;;;19.95;5.38;;;19.60;99.90;;;;;;5040975;28;20488;-76
2022/08/22 00:30:22;;;;;;;19.02;4.88;;;19.60;99.90;;;;;;5050401;28;20111;-74
2022/08/22 00:32:55;;;;;;;21.10;5.22;;;19.60;99.90;;;;;;5050794;28;20017;-73
2022/08/22 00:35:37;;;;;;;17.88;5.50;;;19.60;99.90;;;;;;5030219;28;20030;-73
2022/08/22 00:38:18;;;;;;;19.92;5.18;;;19.50;99.90;;;;;;5029989;28;20029;-73
2022/08/22 00:41:08;;;;;;;21.17;5.15;;;19.50;99.90;;;;;;5029954;28;20084;-74
2022/08/22 00:43:55;;;;;;;19.73;5.57;;;19.40;99.90;;;;;;5045853;28;20021;-74
2022/08/22 00:46:55;;;;;;;17.55;5.07;;;19.40;99.90;;;;;;5050021;28;20504;-73
2022/08/22 00:49:54;;;;;;;24.30;5.30;;;19.40;99.90;;;;;;5041491;28;20483;-74
2022/08/22 00:52:31;;;;;;;22.83;4.65;;;19.50;99.90;;;;;;5031365;28;20469;-73
2022/08/22 00:55:03;;;;;;;17.73;5.25;;;19.50;99.90;;;;;;5029743;28;20033;-74
2022/08/22 00:57:56;;;;;;;15.57;5.00;;;19.50;99.90;;;;;;5034728;28;20499;-74
2022/08/22 01:00:24;;;;;;;17.52;4.70;;;19.50;99.90;;;;;;5048561;28;20033;-74
2022/08/22 01:02:58;;;;;;;21.35;4.95;;;19.50;99.90;;;;;;5029480;28;20073;-75
2022/08/22 01:05:49;;;;;;;19.20;5.93;;;19.60;99.90;;;;;;5046755;28;20104;-74
2022/08/22 01:08:26;;;;;;;22.23;5.10;;;19.60;99.90;;;;;;5050823;28;20423;-75
2022/08/22 01:11:12;;;;;;;17.63;5.45;;;19.60;99.90;;;;;;5034220;28;20033;-74
2022/08/22 01:13:53;;;;;;;25.50;5.10;;;19.50;99.90;;;;;;5029068;28;20481;-73
2022/08/22 01:17:04;;;;;;;22.10;5.38;;;19.50;99.90;;;;;;5030457;28;20029;-74
2022/08/22 01:20:00;;;;;;;21.77;4.68;;;19.40;99.90;;;;;;5034569;28;20033;-73
2022/08/22 01:23:15;;;;;;;19.88;5.40;;;19.40;99.90;;;;;;5050523;28;20025;-74
2022/08/22 01:25:53;;;;;;;19.58;4.70;;;19.40;99.90;;;;;;5047738;28;20049;-74
2022/08/22 01:28:54;;;;;;;23.23;5.38;;;19.40;99.90;;;;;;5047171;28;20127;-74
2022/08/22 01:31:26;;;;;;;19.65;4.97;;;19.30;99.90;;;;;;5034052;28;20058;-73
2022/08/22 01:34:28;;;;;;;17.70;5.53;;;19.30;99.90;;;;;;5030262;28;20036;-74
2022/08/22 01:37:51;;;;;;;21.55;6.68;;;19.30;99.90;;;;;;5030388;28;20481;-73
2022/08/22 01:41:00;;;;;;;20.85;4.70;;;19.30;99.90;;;;;;5027952;28;20037;-74
2022/08/22 01:43:40;;;;;;;15.10;4.70;;;19.30;99.90;;;;;;5021858;28;20392;-73
2022/08/22 01:46:24;;;;;;;16.38;5.53;;;19.20;99.90;;;;;;5026982;28;20045;-73
2022/08/22 01:49:10;;;;;;;21.73;5.75;;;19.20;99.90;;;;;;5030205;28;20105;-75
2022/08/22 01:52:16;;;;;;;25.90;5.80;;;19.20;99.90;;;;;;5048215;28;20037;-74
2022/08/22 01:54:50;;;;;;;19.30;5.28;;;19.10;99.90;;;;;;5048925;28;20388;-74
2022/08/22 01:57:18;;;;;;;20.10;5.32;;;19.00;99.90;;;;;;5049728;28;20021;-74
2022/08/22 01:59:48;;;;;;;21.02;5.32;;;18.80;99.90;;;;;;5035559;28;20494;-74
2022/08/22 02:02:43;;;;;;;18.42;5.25;;;18.90;99.90;;;;;;5029962;28;20021;-75
2022/08/22 02:05:18;;;;;;;16.98;4.80;;;18.80;99.90;;;;;;5029648;28;20488;-74
2022/08/22 02:07:52;;;;;;;14.98;4.30;;;18.80;99.90;;;;;;5028502;28;20536;-74
2022/08/22 02:10:49;;;;;;;24.27;6.40;;;18.70;99.90;;;;;;5028659;28;20408;-75
2022/08/22 02:13:26;;;;;;;12.88;4.63;;;18.80;99.90;;;;;;5029998;28;20319;-74
2022/08/22 02:16:19;;;;;;;17.50;4.28;;;18.70;99.90;;;;;;5030458;28;20504;-75
2022/08/22 02:19:17;;;;;;;15.75;4.32;;;18.80;99.90;;;;;;5028879;28;20033;-74
2022/08/22 02:22:05;;;;;;;19.30;4.97;;;18.70;99.90;;;;;;5031439;28;20026;-74
2022/08/22 02:25:11;;;;;;;14.25;4.35;;;18.70;99.90;;;;;;5029884;28;20106;-75
2022/08/22 02:27:45;;;;;;;16.02;4.78;;;18.80;99.90;;;;;;5029774;28;20033;-74
2022/08/22 02:30:21;;;;;;;13.23;4.20;;;18.80;99.90;;;;;;5043768;28;20047;-74
2022/08/22 02:33:01;;;;;;;12.93;5.38;;;18.80;99.90;;;;;;5049459;28;20044;-74
2022/08/22 02:35:55;;;;;;;10.25;3.38;;;18.80;99.90;;;;;;5044120;28;20029;-74
2022/08/22 02:38:24;;;;;;;15.00;3.65;;;18.70;99.90;;;;;;5027825;28;20496;-73
2022/08/22 02:41:20;;;;;;;16.52;4.18;;;18.70;99.90;;;;;;5029676;28;20513;-73
2022/08/22 02:43:52;;;;;;;18.35;4.63;;;18.70;99.90;;;;;;5029383;28;20381;-74
2022/08/22 02:46:43;;;;;;;14.57;3.75;;;18.70;99.90;;;;;;5049396;28;20544;-73
2022/08/22 02:49:17;;;;;;;13.10;4.15;;;18.70;99.90;;;;;;5049423;28;20037;-73
2022/08/22 02:52:07;;;;;;;17.08;4.40;;;18.80;99.90;;;;;;5035613;28;20038;-75
2022/08/22 02:54:44;;;;;;;10.52;4.65;;;18.80;99.90;;;;;;5042217;28;20079;-74
2022/08/22 02:57:38;;;;;;;16.38;4.18;;;18.80;99.90;;;;;;5051352;28;20033;-73
2022/08/22 03:00:21;;;;;;;12.40;3.70;;;18.70;99.90;;;;;;5053359;28;20036;-74
2022/08/22 03:03:04;;;;;;;12.45;5.25;;;18.70;99.90;;;;;;5035243;28;20025;-73
2022/08/22 03:05:36;;;;;;;13.82;3.83;;;18.70;99.90;;;;;;5033321;28;20088;-74
2022/08/22 03:08:20;;;;;;;16.67;3.90;;;18.70;99.90;;;;;;5052765;28;20029;-74
2022/08/22 03:11:06;;;;;;;12.73;4.03;;;18.70;99.90;;;;;;5051476;28;20032;-75
2022/08/22 03:13:52;;;;;;;19.75;4.28;;;18.70;99.90;;;;;;5032815;28;20421;-74
2022/08/22 03:16:28;;;;;;;11.23;4.20;;;18.70;99.90;;;;;;5032615;28;20057;-74
2022/08/22 03:19:16;;;;;;;13.68;3.80;;;18.80;99.90;;;;;;5032866;28;20029;-74
2022/08/22 03:22:04;;;;;;;19.13;3.97;;;18.70;99.90;;;;;;5047621;28;20068;-74
2022/08/22 03:24:43;;;;;;;16.67;3.85;;;18.70;99.90;;;;;;5052663;28;20473;-74
2022/08/22 03:27:42;;;;;;;8.38;3.80;;;18.70;99.90;;;;;;5052543;28;20029;-74
2022/08/22 03:30:35;;;;;;;11.20;3.72;;;18.70;99.90;;;;;;5052027;28;20051;-75
2022/08/22 03:33:15;;;;;;;12.68;3.83;;;18.70;99.90;;;;;;5033705;28;20041;-74
2022/08/22 03:35:41;;;;;;;15.15;3.50;;;18.80;99.90;;;;;;5035964;28;20043;-74
2022/08/22 03:38:31;;;;;;;12.27;3.60;;;18.70;99.90;;;;;;5051298;28;20025;-74
2022/08/22 03:41:00;;;;;;;16.63;3.65;;;18.70;99.90;;;;;;5049191;28;20394;-74
2022/08/22 03:43:37;;;;;;;6.78;3.28;;;18.70;99.90;;;;;;5032419;28;20029;-75
2022/08/22 03:46:33;;;;;;;10.88;3.58;;;18.70;99.90;;;;;;5032952;28;20115;-73
2022/08/22 03:49:30;;;;;;;16.15;5.38;;;18.70;99.90;;;;;;5032305;28;20026;-74
2022/08/22 03:52:17;;;;;;;13.15;3.67;;;18.60;99.90;;;;;;5031030;28;20120;-74
2022/08/22 03:55:02;;;;;;;11.48;4.18;;;18.60;99.90;;;;;;5032690;28;20425;-74
2022/08/22 03:57:53;;;;;;;10.82;3.45;;;18.60;99.90;;;;;;5032074;28;20443;-74
2022/08/22 04:00:43;;;;;;;14.73;3.47;;;18.60;99.90;;;;;;5035153;28;20049;-73
2022/08/22 04:03:55;;;;;;;14.50;3.95;;;18.70;99.90;;;;;;5050366;28;20523;-72
2022/08/22 04:06:42;;;;;;;9.32;3.17;;;18.70;99.90;;;;;;5037459;28;20029;-73
2022/08/22 04:09:34;;;;;;;15.93;3.50;;;18.80;99.90;;;;;;5031737;28;20071;-73
2022/08/22 04:12:42;;;;;;;14.27;3.88;;;18.90;99.90;;;;;;5044412;28;20115;-73
2022/08/22 04:15:35;;;;;;;12.45;3.78;;;19.00;99.90;;;;;;5050410;28;20043;-74
2022/08/22 04:18:17;;;;;;;16.42;4.05;;;19.00;99.90;;;;;;5051471;28;20029;-74
2022/08/22 04:21:07;;;;;;;11.20;4.10;;;19.00;99.90;;;;;;5036928;28;20026;-73
2022/08/22 04:24:05;;;;;;;11.50;3.47;;;19.10;99.90;;;;;;5030044;28;20053;-73
2022/08/22 04:26:43;;;;;;;14.50;3.53;;;19.10;99.90;;;;;;5030017;28;20037;-73
2022/08/22 04:29:34;;;;;;;9.05;2.60;;;19.20;99.90;;;;;;5031138;28;20131;-73
2022/08/22 04:32:13;;;;;;;13.18;3.35;;;19.20;99.90;;;;;;5030036;28;20523;-72
2022/08/22 04:35:26;;;;;;;12.15;3.78;;;19.30;99.90;;;;;;5035106;28;20031;-73
2022/08/22 04:37:55;;;;;;;10.95;2.95;;;19.40;99.90;;;;;;5048658;28;20028;-74
2022/08/22 04:40:28;;;;;;;13.35;3.45;;;19.40;99.90;;;;;;5047365;28;20061;-74
2022/08/22 04:43:01;;;;;;;11.70;3.08;;;19.40;99.90;;;;;;5038155;28;20037;-74
2022/08/22 04:45:39;;;;;;;15.82;3.85;;;19.40;99.90;;;;;;5031049;28;20109;-73
2022/08/22 04:48:13;;;;;;;10.93;3.50;;;19.50;99.90;;;;;;5030949;28;20033;-75
2022/08/22 04:50:48;;;;;;;10.40;3.13;;;19.50;99.90;;;;;;5049141;28;20029;-74
2022/08/22 04:53:47;;;;;;;11.23;3.22;;;19.50;99.90;;;;;;5050767;28;20461;-74
2022/08/22 04:56:22;;;;;;;9.20;3.15;;;19.50;99.90;;;;;;5050620;28;20563;-72
2022/08/22 04:59:06;;;;;;;8.77;2.88;;;19.50;99.90;;;;;;5050262;28;20535;-74
2022/08/22 05:01:46;;;;;;;12.15;3.38;;;19.60;99.90;;;;;;5029420;28;20025;-74
2022/08/22 05:04:25;;;;;;;11.95;3.67;;;19.60;99.90;;;;;;5034480;28;20029;-74
2022/08/22 05:06:56;;;;;;;10.23;2.83;;;19.70;99.90;;;;;;5050547;28;20035;-75
2022/08/22 05:09:27;;;;;;;12.02;3.65;;;19.70;99.90;;;;;;5050144;28;20037;-75
2022/08/22 05:11:56;;;;;;;10.55;3.10;;;19.80;99.90;;;;;;5049303;28;20021;-74
2022/08/22 05:14:45;;;;;;;13.80;3.35;;;19.90;99.90;;;;;;5050252;28;20502;-72
2022/08/22 05:17:15;;;;;;;8.40;3.10;;;20.00;99.90;;;;;;5050158;28;20051;-73
2022/08/22 05:19:49;;;;;;;11.73;2.97;;;19.90;99.90;;;;;;5034458;28;20029;-74
2022/08/22 05:22:23;;;;;;;16.23;3.38;;;20.10;99.90;;;;;;5029369;28;20113;-74
2022/08/22 05:24:55;;;;;;;5.88;2.70;;;20.20;99.90;;;;;;5030490;28;20044;-73
2022/08/22 05:27:25;;;;;;;13.20;3.05;;;20.30;99.90;;;;;;5029000;28;20025;-74
2022/08/22 05:30:01;;;;;;;16.85;5.38;;;20.30;99.90;;;;;;5030649;28;20049;-74
2022/08/22 05:32:31;;;;;;;8.82;2.83;;;20.20;99.90;;;;;;5030256;28;20025;-73
2022/08/22 05:35:00;;;;;;;11.70;3.50;;;20.20;99.90;;;;;;5044469;28;20037;-73
2022/08/22 05:37:48;;;;;;;11.07;3.97;;;20.10;99.90;;;;;;5050056;28;20029;-73
2022/08/22 05:40:25;;;;;;;9.38;3.28;;;20.00;99.90;;;;;;5048174;28;20033;-74
2022/08/22 05:42:53;;;;;;;8.88;3.72;;;20.10;99.90;;;;;;5050120;28;20523;-73
2022/08/22 05:45:20;;;;;;;12.75;3.50;;;20.00;99.90;;;;;;5050240;28;20029;-73
2022/08/22 05:48:03;;;;;;;10.40;3.97;;;20.00;99.90;;;;;;5048466;28;20029;-75
2022/08/22 05:50:44;;;;;;;7.28;2.85;;;20.10;99.90;;;;;;5050213;28;20074;-74
2022/08/22 05:53:15;;;;;;;11.23;3.50;;;20.20;99.90;;;;;;5050121;28;20025;-75
2022/08/22 05:56:05;;;;;;;10.88;3.83;;;20.30;99.90;;;;;;5050460;28;20044;-74
2022/08/22 05:58:42;;;;;;;7.60;2.80;;;20.50;99.90;;;;;;5039032;28;20017;-73
2022/08/22 06:01:32;;;;;;;14.95;3.70;;;20.70;99.90;;;;;;5028562;28;20532;-73
2022/08/22 06:04:26;;;;;;;8.77;3.22;;;20.80;99.90;;;;;;5039179;28;20478;-73
2022/08/22 06:07:08;;;;;;;16.27;3.00;;;20.80;99.90;;;;;;5048570;28;20051;-73
2022/08/22 06:09:58;;;;;;;11.82;3.33;;;20.80;99.90;;;;;;5046856;28;20538;-74
2022/08/22 06:12:38;;;;;;;9.20;2.70;;;20.80;99.90;;;;;;5047538;28;20045;-73
2022/08/22 06:15:14;;;;;;;9.48;2.80;;;20.90;99.90;;;;;;5048460;28;20033;-75
2022/08/22 06:17:46;;;;;;;10.77;3.17;;;20.90;99.90;;;;;;5039068;28;20448;-74
2022/08/22 06:20:20;;;;;;;15.77;3.15;;;21.30;99.90;;;;;;5045784;28;20452;-75
2022/08/22 06:22:54;;;;;;;9.68;3.33;;;21.10;99.90;;;;;;5048434;28;20029;-74
2022/08/22 06:25:31;;;;;;;9.98;3.55;;;21.20;99.90;;;;;;5048322;28;20028;-72
2022/08/22 06:28:04;;;;;;;10.60;3.42;;;21.30;99.90;;;;;;5040203;28;20037;-74
2022/08/22 06:30:31;;;;;;;16.58;3.30;;;21.30;99.90;;;;;;5031393;28;20124;-73
2022/08/22 06:33:02;;;;;;;17.63;3.70;;;21.30;99.90;;;;;;5033364;28;20025;-74
2022/08/22 06:35:29;;;;;;;10.88;3.25;;;21.40;99.90;;;;;;5034207;28;20037;-73
2022/08/22 06:37:58;;;;;;;10.25;3.55;;;21.40;99.90;;;;;;5033486;28;20025;-73
2022/08/22 06:40:25;;;;;;;10.45;3.50;;;21.50;99.90;;;;;;5033289;28;20036;-73
2022/08/22 06:42:52;;;;;;;11.43;3.20;;;21.60;99.90;;;;;;5039337;28;20071;-73
2022/08/22 06:45:23;;;;;;;18.35;4.00;;;21.60;99.90;;;;;;5053564;28;20029;-74
2022/08/22 06:48:04;;;;;;;13.52;3.35;;;21.70;99.90;;;;;;5052295;28;20025;-75
2022/08/22 06:50:41;;;;;;;11.75;3.28;;;21.80;99.90;;;;;;5037985;28;20569;-74
2022/08/22 06:53:17;;;;;;;15.45;3.63;;;22.00;99.90;;;;;;5033025;28;20033;-74
2022/08/22 06:55:48;;;;;;;7.55;3.08;;;22.20;99.90;;;;;;5033416;28;20469;-73
2022/08/22 06:58:22;;;;;;;9.57;3.50;;;22.30;99.90;;;;;;5039452;28;20373;-74
2022/08/22 07:00:56;;;;;;;11.02;3.40;;;22.30;99.90;;;;;;5051746;28;20044;-74
2022/08/22 07:03:32;;;;;;;15.57;3.80;;;22.40;99.90;;;;;;5051188;28;20021;-73
2022/08/22 07:05:58;;;;;;;9.63;2.95;;;22.40;99.90;;;;;;5048502;28;20040;-72
2022/08/22 07:08:25;;;;;;;;;;;22.40;99.90;;;;;;5032237;28;20387;-71
2022/08/22 07:11:22;;;;;;;14.18;3.63;;;22.20;99.90;;;;;;5041045;28;19917;-73
2022/08/22 07:14:01;;;;;;;13.02;3.78;;;22.20;99.90;;;;;;5052805;28;20047;-74
2022/08/22 07:16:34;;;;;;;14.98;7.00;;;22.20;99.90;;;;;;5050737;28;20025;-72
2022/08/22 07:19:00;;;;;;;12.23;4.15;;;22.20;99.90;;;;;;5050698;28;20146;-73
2022/08/22 07:21:30;;;;;;;11.10;3.33;;;22.30;99.90;;;;;;5034670;28;20131;-73
2022/08/22 07:24:00;;;;;;;12.60;4.13;;;22.40;99.90;;;;;;5032279;28;20033;-73
2022/08/22 07:26:50;;;;;;;9.20;3.50;;;22.50;99.90;;;;;;5044846;28;20037;-74
2022/08/22 07:29:18;;;;;;;8.23;2.83;;;22.60;99.90;;;;;;5050705;28;20041;-73
2022/08/22 07:31:55;;;;;;;10.75;2.88;;;22.70;99.90;;;;;;5050661;28;20373;-71
2022/08/22 07:34:36;;;;;;;7.43;3.20;;;22.80;99.90;;;;;;5050882;28;20059;-73
2022/08/22 07:37:10;;;;;;;13.13;3.90;;;22.80;99.90;;;;;;5030682;28;20041;-72
2022/08/22 07:40:07;;;;;;;14.13;3.33;;;22.80;99.90;;;;;;5032027;28;20033;-72
2022/08/22 07:42:57;;;;;;;13.55;3.20;;;22.80;99.90;;;;;;5031501;28;20049;-72
2022/08/22 07:45:39;;;;;;;13.50;3.47;;;22.90;99.90;;;;;;5051506;28;20024;-72
2022/08/22 07:48:29;;;;;;;13.43;3.22;;;23.00;99.90;;;;;;5050762;28;20112;-72
2022/08/22 07:51:13;;;;;;;12.55;3.40;;;23.10;99.90;;;;;;5052261;28;20487;-72
2022/08/22 07:53:49;;;;;;;12.38;3.03;;;23.20;99.90;;;;;;5051914;28;20025;-73
2022/08/22 07:56:26;;;;;;;14.73;2.90;;;23.30;99.90;;;;;;5050712;28;20534;-73
2022/08/22 07:58:57;;;;;;;15.60;3.25;;;23.50;99.90;;;;;;5045157;28;20086;-74
2022/08/22 08:01:25;;;;;;;13.02;3.33;;;23.50;99.90;;;;;;5031678;28;20025;-72
2022/08/22 08:03:58;;;;;;;10.93;3.03;;;23.60;99.90;;;;;;5031377;28;20029;-73
2022/08/22 08:06:25;;;;;;;9.88;3.17;;;23.80;99.90;;;;;;5043381;28;20452;-72
2022/08/22 08:08:52;;;;;;;12.18;3.20;;;23.90;99.90;;;;;;5049990;28;20025;-72
2022/08/22 08:11:19;;;;;;;12.30;3.58;;;24.00;99.90;;;;;;5050138;28;20096;-71
2022/08/22 08:13:50;;;;;;;9.05;3.17;;;24.10;99.90;;;;;;5048929;28;20059;-73
2022/08/22 08:16:18;;;;;;;12.23;3.95;;;24.20;99.90;;;;;;5031427;28;20033;-74
2022/08/22 08:18:48;;;;;;;10.63;3.33;;;24.30;99.90;;;;;;5031245;28;20559;-75
2022/08/22 08:21:35;;;;;;;9.75;3.60;;;24.50;99.90;;;;;;5030829;28;20037;-73
2022/08/22 08:24:02;;;;;;;12.48;3.78;;;24.60;99.90;;;;;;5041212;28;20090;-73
2022/08/22 08:29:42;;;;;;;8.80;2.92;;;24.70;99.90;;;;;;5050648;28;19920;-72
2022/08/22 08:32:11;;;;;;;8.38;2.92;;;24.90;99.90;;;;;;5049460;28;20070;-72
2022/08/22 08:34:38;;;;;;;7.20;2.75;;;25.10;99.90;;;;;;5050941;28;20040;-72
2022/08/22 08:37:20;;;;;;;12.95;2.67;;;25.40;99.90;;;;;;5034158;28;20441;-73
2022/08/22 08:39:50;;;;;;;12.70;3.05;;;25.60;99.90;;;;;;5031184;28;20029;-73
2022/08/22 08:46:10;;;;;;;13.70;3.30;;;26.00;99.90;;;;;;5044337;28;20052;-74
2022/08/22 08:48:49;;;;;;;10.40;2.75;;;26.20;99.90;;;;;;5049687;28;20087;-74
2022/08/22 08:51:30;;;;;;;12.95;3.00;;;26.40;99.90;;;;;;5042726;28;20393;-73
2022/08/22 08:54:17;;;;;;;14.23;2.88;;;26.60;99.90;;;;;;5044766;28;20037;-72
2022/08/22 08:57:21;;;;;;;11.73;2.35;;;26.80;99.90;;;;;;5049237;28;20044;-73
2022/08/22 09:00:11;;;;;;;12.18;2.80;;;27.20;99.90;;;;;;5048565;28;20116;-73
2022/08/22 09:03:04;;;;;;;7.60;2.47;;;27.40;99.90;;;;;;5050406;28;20091;-73
2022/08/22 09:05:48;;;;;;;13.82;3.03;;;27.60;99.90;;;;;;5049851;28;20060;-74
2022/08/22 09:08:25;;;;;;;10.93;3.15;;;27.80;99.90;;;;;;5030800;28;20036;-73
2022/08/22 09:11:05;;;;;;;11.20;2.85;;;27.80;99.90;;;;;;5030682;28;20116;-72
2022/08/22 09:13:52;;;;;;;11.82;2.75;;;28.00;99.90;;;;;;5030363;28;20052;-74
2022/08/22 09:16:30;;;;;;;9.60;2.85;;;28.10;99.90;;;;;;5045187;28;20237;-75
2022/08/22 09:19:24;;;;;;;19.15;3.40;;;28.10;99.80;;;;;;5050354;28;20462;-74
2022/08/22 09:22:07;;;;;;;8.80;2.60;;;28.20;99.10;;;;;;5048194;28;20036;-74
2022/08/22 09:24:47;;;;;;;12.68;3.60;;;28.50;98.80;;;;;;5037221;28;20026;-74
2022/08/22 09:27:34;;;;;;;15.30;2.88;;;28.60;97.10;;;;;;5028918;28;20040;-75
2022/08/22 09:30:14;;;;;;;16.30;3.65;;;28.60;95.00;;;;;;5050120;28;20380;-73
2022/08/22 09:33:04;;;;;;;11.82;2.65;;;28.60;94.20;;;;;;5049134;28;20055;-74
2022/08/22 09:35:45;;;;;;;15.82;2.70;;;28.80;93.70;;;;;;5048720;28;20044;-75
2022/08/22 09:38:17;;;;;;;13.15;2.97;;;28.90;92.80;;;;;;5048225;28;20503;-74
2022/08/22 09:41:20;;;;;;;13.90;3.08;;;28.90;92.80;;;;;;5049584;28;20036;-74
2022/08/22 09:44:29;;;;;;;12.75;3.05;;;29.00;91.00;;;;;;5048382;28;20040;-74
2022/08/22 09:47:06;;;;;;;13.98;3.47;;;29.10;91.60;;;;;;5029755;28;20061;-73
2022/08/22 09:49:45;;;;;;;;;;;29.20;91.10;;;;;;5030182;28;20550;-72
2022/08/22 09:52:35;;;;;;;20.48;4.30;;;29.20;90.50;;;;;;5029467;28;19913;-73
2022/08/22 09:55:32;;;;;;;12.52;3.42;;;29.00;90.40;;;;;;5031182;28;20021;-73
2022/08/22 09:58:22;;;;;;;15.00;3.20;;;28.80;90.90;;;;;;5029830;28;20029;-73
2022/08/22 10:01:02;;;;;;;13.55;3.58;;;28.90;91.30;;;;;;5034456;28;20029;-74
2022/08/22 10:03:51;;;;;;;20.00;3.22;;;28.80;90.40;;;;;;5049419;28;20108;-74
2022/08/22 10:06:25;;;;;;;26.52;4.20;;;29.00;90.40;;;;;;5053412;28;20101;-73
2022/08/22 10:09:05;;;;;;;20.50;3.65;;;29.10;89.50;;;;;;5050201;28;20497;-73
2022/08/22 10:11:56;;;;;;;23.42;4.97;;;29.20;89.00;;;;;;5052371;28;20067;-74
2022/08/22 10:14:30;;;;;;;18.92;3.53;;;29.20;87.90;;;;;;5053660;28;20033;-73
2022/08/22 10:17:10;;;;;;;16.80;5.03;;;29.30;88.00;;;;;;5042038;28;20053;-73
2022/08/22 10:19:43;;;;;;;16.63;3.67;;;29.30;88.10;;;;;;5032299;28;20038;-73
2022/08/22 10:22:37;;;;;;;28.17;3.97;;;29.40;89.20;;;;;;5033526;28;20035;-75
2022/08/22 10:25:27;;;;;;;16.27;3.47;;;29.70;89.60;;;;;;5035008;28;20271;-75
2022/08/22 10:27:58;;;;;;;23.30;4.25;;;30.00;88.60;;;;;;5033387;28;20030;-73
2022/08/22 10:30:31;;;;;;;30.27;4.72;;;30.30;86.90;;;;;;5034981;28;20033;-74
2022/08/22 10:33:22;;;;;;;23.00;3.92;;;30.40;86.20;;;;;;5032255;28;20127;-74
2022/08/22 10:36:17;;;;;;;24.52;5.10;;;30.30;86.10;;;;;;5033894;28;20377;-73
2022/08/22 10:38:42;;;;;;;30.95;4.82;;;30.30;87.50;;;;;;5043444;28;20040;-74
2022/08/22 10:41:32;;;;;;;31.60;4.45;;;30.40;86.40;;;;;;5053103;28;20053;-71
2022/08/22 10:44:23;;;;;;;28.60;4.07;;;30.40;86.00;;;;;;5053060;28;20096;-73
2022/08/22 10:47:07;;;;;;;29.38;3.92;;;30.30;85.80;;;;;;5051475;28;20052;-73
2022/08/22 10:49:37;;;;;;;29.45;6.22;;;30.10;86.10;;;;;;5051879;28;20033;-72
2022/08/22 10:52:32;;;;;;;27.33;4.38;;;30.00;86.10;;;;;;5051963;28;20043;-73
2022/08/22 10:55:25;;;;;;;31.65;4.90;;;30.00;86.70;;;;;;5039180;28;20384;-73
2022/08/22 10:58:09;;;;;;;27.25;5.22;;;29.90;86.60;;;;;;5039096;28;20518;-73
2022/08/22 11:00:47;;;;;;;31.63;5.55;;;29.80;86.90;;;;;;5051414;28;20033;-72
2022/08/22 11:03:40;;;;;;;26.92;5.20;;;29.90;88.50;;;;;;5052605;28;20052;-74
2022/08/22 11:06:26;;;;;;;25.08;4.90;;;29.90;86.50;;;;;;5050418;28;20056;-73
2022/08/22 11:09:10;;;;;;;37.50;5.60;;;29.80;88.30;;;;;;5040708;28;20480;-74
2022/08/22 11:11:59;;;;;;;23.88;5.45;;;30.00;87.90;;;;;;5052446;28;20449;-73
2022/08/22 11:15:04;;;;;;;21.98;4.97;;;30.50;88.20;;;;;;5052095;28;20404;-72
2022/08/22 11:18:14;;;;;;;21.65;4.28;;;30.90;86.80;;;;;;5028952;28;20069;-73
2022/08/22 11:21:18;;;;;;;28.70;5.05;;;31.10;87.10;;;;;;5033015;28;20065;-72
2022/08/22 11:24:11;;;;;;;27.58;4.43;;;31.40;85.10;;;;;;5037788;28;20036;-74
2022/08/22 11:26:52;;;;;;;22.40;5.05;;;31.50;83.90;;;;;;5032935;28;20033;-71
2022/08/22 11:29:37;;;;;;;24.90;5.43;;;31.30;84.80;;;;;;5032400;28;20469;-72
2022/08/22 11:32:29;;;;;;;27.02;4.05;;;31.30;84.20;;;;;;5035052;28;20503;-72
2022/08/22 11:34:55;;;;;;;33.35;5.05;;;31.60;84.10;;;;;;5052245;28;20045;-73
2022/08/22 11:37:41;;;;;;;27.40;5.07;;;31.90;83.10;;;;;;5052294;28;20036;-73
2022/08/22 11:40:36;;;;;;;32.90;5.80;;;32.00;84.00;;;;;;5036343;28;20032;-73
2022/08/22 11:43:31;;;;;;;33.83;5.45;;;32.00;82.70;;;;;;5032164;28;20042;-72
2022/08/22 11:46:02;;;;;;;34.50;5.78;;;31.70;80.70;;;;;;5032093;28;20076;-71
2022/08/22 11:48:42;;;;;;;40.97;6.18;;;31.40;79.70;;;;;;5032357;28;20560;-72
2022/08/22 11:51:23;;;;;;;36.83;5.72;;;31.20;79.80;;;;;;5032297;28;20480;-72
2022/08/22 11:53:57;;;;;;;33.28;6.78;;;31.30;80.00;;;;;;5030688;28;20045;-71
2022/08/22 11:56:37;;;;;;;41.60;6.57;;;31.30;77.00;;;;;;5032277;28;20468;-71
2022/08/22 11:59:26;;;;;;;35.45;6.05;;;30.90;77.80;;;;;;5031657;28;20044;-72
2022/08/22 12:01:58;;;;;;;38.15;6.22;;;30.50;78.30;;;;;;5030928;28;20040;-72
2022/08/22 12:04:27;;;;;;;35.97;5.97;;;30.50;78.10;;;;;;5049775;28;20029;-74
2022/08/22 12:07:17;;;;;;;37.65;6.63;;;30.40;78.50;;;;;;5051654;28;20021;-72
2022/08/22 12:10:01;;;;;;;39.47;6.05;;;30.40;80.40;;;;;;5042831;28;20070;-74
2022/08/22 12:12:59;;;;;;;29.73;5.65;;;30.50;80.80;;;;;;5032377;28;20029;-73
2022/08/22 12:15:39;;;;;;;41.17;5.68;;;30.50;81.30;;;;;;5031604;28;20494;-73
2022/08/22 12:18:20;;;;;;;33.70;5.20;;;30.60;82.60;;;;;;5035392;28;20075;-72
2022/08/22 12:21:01;;;;;;;33.58;6.10;;;30.40;83.00;;;;;;5050224;28;20040;-73
2022/08/22 12:23:35;;;;;;;37.63;5.97;;;30.40;81.40;;;;;;5051404;28;20047;-75
2022/08/22 12:26:09;;;;;;;37.08;6.72;;;30.50;80.10;;;;;;5035439;28;20729;-74
2022/08/22 12:28:44;;;;;;;34.60;5.93;;;30.40;80.50;;;;;;5051375;28;20064;-73
2022/08/22 12:31:43;;;;;;;30.85;5.10;;;30.40;81.10;;;;;;5051091;28;20056;-74
2022/08/22 12:34:23;;;;;;;40.25;6.15;;;30.30;80.60;;;;;;5037071;28;20033;-73
2022/08/22 12:37:21;;;;;;;49.50;7.22;;;30.20;80.80;;;;;;5029723;28;20061;-72
2022/08/22 12:39:49;;;;;;;;;;;30.00;81.30;;;;;;5035250;28;20044;-75
2022/08/22 12:42:51;;;;;;;33.47;5.35;;;29.70;81.90;;;;;;5049552;28;19920;-73
2022/08/22 12:45:35;;;;;;;44.33;8.80;;;29.70;82.50;;;;;;5046132;28;20021;-73
2022/08/22 12:48:25;;;;;;;41.72;5.75;;;29.70;80.90;;;;;;5030866;28;20373;-71
2022/08/22 12:51:14;;;;;;;33.00;6.97;;;29.40;79.90;;;;;;5031275;28;20021;-73
2022/08/22 12:54:07;;;;;;;42.03;7.18;;;29.30;80.20;;;;;;5029595;28;20109;-72
2022/08/22 12:56:39;;;;;;;49.22;6.43;;;29.10;80.70;;;;;;5031535;28;20128;-71
2022/08/22 12:59:14;;;;;;;43.67;7.97;;;29.10;80.40;;;;;;5050674;28;20025;-72
2022/08/22 13:01:43;;;;;;;33.65;6.45;;;29.10;79.90;;;;;;5049290;28;20025;-72
2022/08/22 13:04:24;;;;;;;37.90;6.15;;;29.10;80.60;;;;;;5040167;28;20039;-74
2022/08/22 13:06:59;;;;;;;38.25;6.32;;;29.10;81.80;;;;;;5029170;28;20029;-72
2022/08/22 13:09:34;;;;;;;32.83;6.82;;;29.10;81.90;;;;;;5030665;28;20509;-72
2022/08/22 13:12:20;;;;;;;47.40;6.95;;;29.00;82.70;;;;;;5050323;28;20102;-73
2022/08/22 13:14:51;;;;;;;40.78;7.70;;;28.90;83.10;;;;;;5050480;28;20041;-73
2022/08/22 13:17:19;;;;;;;37.25;8.02;;;28.90;83.00;;;;;;5049065;28;20124;-74
2022/08/22 13:19:54;;;;;;;41.88;6.75;;;28.70;81.90;;;;;;5038683;28;20536;-72
2022/08/22 13:22:25;;;;;;;38.90;6.43;;;28.50;83.20;;;;;;5030759;28;20029;-72
2022/08/22 13:25:14;;;;;;;35.33;4.82;;;28.50;83.70;;;;;;5028842;28;20030;-73
2022/08/22 13:27:50;;;;;;;30.20;5.15;;;28.60;83.40;;;;;;5031192;28;20037;-72
2022/08/22 13:30:21;;;;;;;30.58;4.75;;;28.50;82.60;;;;;;5029060;28;20396;-72
2022/08/22 13:32:50;;;;;;;29.35;4.95;;;28.50;82.80;;;;;;5028786;28;20029;-72
2022/08/22 13:35:51;;;;;;;28.02;5.60;;;28.40;83.30;;;;;;5044485;28;20511;-73
2022/08/22 13:38:31;;;;;;;26.40;5.60;;;28.30;82.30;;;;;;5045131;28;20131;-72
2022/08/22 13:41:00;;;;;;;28.67;4.80;;;28.30;83.20;;;;;;5040881;28;20480;-74
2022/08/22 13:43:36;;;;;;;32.50;5.13;;;28.20;83.60;;;;;;5030052;28;20420;-72
2022/08/22 13:46:05;;;;;;;27.20;5.88;;;28.10;84.00;;;;;;5030046;28;20095;-73
2022/08/22 13:48:52;;;;;;;32.78;5.05;;;28.20;84.10;;;;;;5030057;28;20034;-72
2022/08/22 13:51:25;;;;;;;30.60;4.97;;;28.10;84.70;;;;;;5028719;28;20037;-73
2022/08/22 13:54:25;;;;;;;28.08;5.00;;;28.00;84.80;;;;;;5029959;28;20031;-72
2022/08/22 13:57:28;;;;;;;27.80;4.38;;;28.00;85.10;;;;;;5030023;28;20037;-72
2022/08/22 14:00:18;;;;;;;24.98;4.25;;;27.90;82.90;;;;;;5031273;28;20187;-72